KHIO

Portland-Hillsboro Airport

Portland, Oregon, USA
METAR KHIO 231353Z 00000KT 10SM CLR M06/M08 A3050 RMK AO2 SLP332 I1001 T10611078
Observed Flight Rules
Feb-23 @ 13:53 UTC (42 minutes ago) Visual Flight Rules
Wind Visibility Clouds
Calm 10 miles
  • Clear skies
Temperatures Readings
Current -6°C / 21°F
Dewpoint -8°C / 18°F
Humidity 86%
Altimeter 30.5" Hg
Pressure 1033.2 hPa
Elevation 68
METAR KHIO 231353Z 00000KT 10SM CLR M06/M08 A3050 RMK AO2 SLP332 I1001 T10611078
Observed Flight Rules
Feb-23 @ 13:53 UTC
(42 minutes ago)
VFR
Wind Visibility
Calm 10 miles
Clouds
  • Clear skies
Temperature Dewpoint
-6°C / 21°F -8°C / 18°F
Humidity Altimeter Pressure
86% 30.5" Hg 1033.2 hPa